Time;durP1;ratioP1;P1;durP2;ratioP2;P2;SDS_P1;SDS_P2;PMS_P1;PMS_P2;Temp;Humidity;BMP_temperature;BMP_pressure;BME280_temperature;BME280_humidity;BME280_pressure;Samples;Min_cycle;Max_cycle;Signal;HPM_P1;HPM_P2
2021/01/17 00:01:03;;;;;;;37.30;4.70;;;8.40;99.90;;;;;;2111432;28;20046;-73
2021/01/17 00:02:04;;;;;;;50.33;6.50;;;8.40;99.90;;;;;;2106304;28;20074;-72
2021/01/17 00:03:06;;;;;;;42.72;6.30;;;8.40;99.90;;;;;;2106076;28;20070;-73
2021/01/17 00:04:06;;;;;;;39.22;5.80;;;8.40;99.90;;;;;;2113921;28;20020;-72
2021/01/17 00:05:15;;;;;;;35.33;3.97;;;8.40;99.90;;;;;;2123107;27;20061;-72
2021/01/17 00:06:16;;;;;;;27.73;4.95;;;8.40;99.90;;;;;;2121848;27;20094;-73
2021/01/17 00:07:16;;;;;;;36.60;5.00;;;8.50;99.90;;;;;;2113991;28;20023;-72
2021/01/17 00:08:18;;;;;;;38.05;5.07;;;8.40;99.90;;;;;;2114981;28;20062;-73
2021/01/17 00:09:19;;;;;;;33.17;5.47;;;8.40;99.90;;;;;;2113990;28;20078;-72
2021/01/17 00:10:26;;;;;;;29.33;4.90;;;8.40;99.90;;;;;;2114741;28;20085;-72
2021/01/17 00:11:26;;;;;;;40.83;5.45;;;8.40;99.90;;;;;;2106071;28;20135;-72
2021/01/17 00:12:27;;;;;;;30.60;4.65;;;8.40;99.90;;;;;;2105892;28;20081;-72
2021/01/17 00:13:28;;;;;;;26.95;4.68;;;8.40;99.90;;;;;;2106208;28;20028;-72
2021/01/17 00:14:28;;;;;;;31.45;4.18;;;8.40;99.90;;;;;;2111393;28;20077;-72
2021/01/17 00:15:29;;;;;;;35.20;4.55;;;8.40;99.90;;;;;;2113930;28;20128;-73
2021/01/17 00:16:30;;;;;;;30.60;4.22;;;8.40;99.90;;;;;;2122988;27;20423;-72
2021/01/17 00:17:31;;;;;;;39.20;4.72;;;8.40;99.90;;;;;;2111814;28;20023;-73
2021/01/17 00:18:32;;;;;;;29.75;4.07;;;8.40;99.90;;;;;;2114168;28;20032;-72
2021/01/17 00:19:32;;;;;;;32.05;4.68;;;8.40;99.90;;;;;;2114142;28;20384;-72
2021/01/17 00:20:33;;;;;;;25.70;3.90;;;8.40;99.90;;;;;;2114826;28;20097;-72
2021/01/17 00:21:35;;;;;;;37.70;3.70;;;8.50;99.90;;;;;;2114346;28;20035;-73
2021/01/17 00:22:36;;;;;;;29.02;5.30;;;8.50;99.90;;;;;;2114760;28;20027;-73
2021/01/17 00:23:37;;;;;;;23.38;3.95;;;8.50;99.90;;;;;;2114450;28;20020;-72
2021/01/17 00:24:37;;;;;;;24.33;3.90;;;8.50;99.90;;;;;;2104795;28;20050;-72
2021/01/17 00:25:38;;;;;;;27.27;3.88;;;8.50;99.90;;;;;;2105692;28;20034;-73
2021/01/17 00:26:39;;;;;;;25.65;4.47;;;8.50;99.90;;;;;;2105498;28;20556;-73
2021/01/17 00:27:40;;;;;;;34.05;4.45;;;8.50;99.90;;;;;;2113904;28;20148;-72
2021/01/17 00:28:40;;;;;;;21.65;4.40;;;8.50;99.90;;;;;;2114784;28;20073;-72
2021/01/17 00:29:44;;;;;;;29.27;4.47;;;8.50;99.90;;;;;;2115019;28;20120;-72
2021/01/17 00:30:45;;;;;;;22.40;3.78;;;8.50;99.90;;;;;;2113575;28;20020;-73
2021/01/17 00:31:45;;;;;;;32.45;3.60;;;8.50;99.90;;;;;;2114548;28;20015;-72
2021/01/17 00:32:56;;;;;;;34.40;4.80;;;8.50;99.90;;;;;;2114680;27;20704;-72
2021/01/17 00:33:57;;;;;;;21.98;4.82;;;8.50;99.90;;;;;;2105593;28;20027;-74
2021/01/17 00:34:57;;;;;;;25.42;5.78;;;8.50;99.90;;;;;;2105763;28;20028;-72
2021/01/17 00:35:58;;;;;;;38.38;5.40;;;8.50;99.90;;;;;;2109701;28;20059;-73
2021/01/17 00:36:59;;;;;;;25.85;4.65;;;8.40;99.90;;;;;;2112731;28;20031;-72
2021/01/17 00:38:02;;;;;;;25.55;3.38;;;8.40;99.90;;;;;;2106278;28;20020;-73
2021/01/17 00:39:04;;;;;;;31.42;5.55;;;8.40;99.90;;;;;;2114380;28;20034;-73
2021/01/17 00:40:06;;;;;;;29.42;4.72;;;8.50;99.90;;;;;;2114763;28;20074;-72
2021/01/17 00:41:06;;;;;;;25.08;3.63;;;8.40;99.90;;;;;;2114646;28;20119;-72
2021/01/17 00:42:11;;;;;;;31.80;3.70;;;8.40;99.90;;;;;;2113342;27;20027;-73
2021/01/17 00:43:12;;;;;;;21.13;3.35;;;8.50;99.90;;;;;;2114017;28;20058;-74
2021/01/17 00:44:13;;;;;;;20.80;3.00;;;8.50;99.90;;;;;;2114701;28;20022;-72
2021/01/17 00:45:15;;;;;;;29.20;3.47;;;8.40;99.90;;;;;;2118081;27;20020;-73
2021/01/17 00:46:15;;;;;;;30.42;3.38;;;8.40;99.90;;;;;;2113917;27;20070;-72
2021/01/17 00:47:17;;;;;;;22.77;3.03;;;8.50;99.90;;;;;;2114008;27;20020;-72
2021/01/17 00:48:17;;;;;;;20.38;3.05;;;8.50;99.90;;;;;;2105484;28;20020;-73
2021/01/17 00:49:18;;;;;;;26.25;3.85;;;8.50;99.90;;;;;;2108201;28;20471;-72
2021/01/17 00:50:20;;;;;;;19.23;2.72;;;8.50;99.90;;;;;;2109291;28;20728;-73
2021/01/17 00:51:21;;;;;;;21.50;2.90;;;8.50;99.90;;;;;;2122815;27;20029;-72
2021/01/17 00:52:22;;;;;;;23.90;3.60;;;8.50;99.90;;;;;;2115302;27;20403;-73
2021/01/17 00:53:23;;;;;;;18.77;2.95;;;8.50;99.90;;;;;;2116132;27;20034;-72
2021/01/17 00:54:24;;;;;;;22.05;3.25;;;8.50;99.90;;;;;;2116194;27;20031;-73
2021/01/17 00:55:24;;;;;;;24.10;3.97;;;8.50;99.90;;;;;;2106907;28;20035;-73
2021/01/17 00:56:25;;;;;;;21.05;3.08;;;8.50;99.90;;;;;;2111664;28;20028;-72
2021/01/17 00:57:27;;;;;;;26.40;3.28;;;8.50;99.90;;;;;;2113901;28;20035;-72
2021/01/17 00:58:28;;;;;;;;;;;8.50;99.90;;;;;;2109518;28;20031;-73
2021/01/17 00:59:28;;;;;;;31.83;6.00;;;8.50;99.90;;;;;;2114686;28;20378;-72
2021/01/17 01:00:29;;;;;;;19.42;3.65;;;8.50;99.90;;;;;;2112799;28;20020;-73
2021/01/17 01:01:39;;;;;;;27.60;3.72;;;8.50;99.90;;;;;;2113922;28;20022;-73
2021/01/17 01:02:40;;;;;;;21.92;4.32;;;8.50;99.90;;;;;;2111646;28;20020;-73
2021/01/17 01:03:40;;;;;;;20.10;3.70;;;8.50;99.90;;;;;;2113579;28;20016;-73
2021/01/17 01:04:41;;;;;;;27.17;4.13;;;8.40;99.90;;;;;;2112822;28;20023;-73
2021/01/17 01:05:42;;;;;;;31.67;5.50;;;8.40;99.90;;;;;;2105101;28;20023;-73
2021/01/17 01:06:43;;;;;;;31.42;5.78;;;8.40;99.90;;;;;;2114170;27;20024;-73
2021/01/17 01:07:44;;;;;;;23.48;3.90;;;8.40;99.90;;;;;;2113586;27;20085;-74
2021/01/17 01:08:46;;;;;;;27.30;4.45;;;8.40;99.90;;;;;;2111093;28;20664;-73
2021/01/17 01:09:46;;;;;;;;;;;8.40;99.90;;;;;;2102202;28;20018;-74
2021/01/17 01:10:47;;;;;;;20.65;3.78;;;8.40;99.90;;;;;;2100758;28;20648;-73
2021/01/17 01:11:48;;;;;;;23.88;4.65;;;8.40;99.90;;;;;;2111349;28;20091;-73
2021/01/17 01:12:53;;;;;;;27.42;4.05;;;8.40;99.90;;;;;;2109227;28;20020;-73
2021/01/17 01:13:53;;;;;;;29.65;4.88;;;8.40;99.90;;;;;;2111403;28;20573;-73
2021/01/17 01:14:54;;;;;;;18.80;2.88;;;8.40;99.90;;;;;;2114085;28;20019;-74
2021/01/17 01:15:55;;;;;;;20.75;3.05;;;8.40;99.90;;;;;;2110607;28;20068;-73
2021/01/17 01:16:55;;;;;;;19.88;3.40;;;8.40;99.90;;;;;;2105131;28;20027;-73
2021/01/17 01:17:56;;;;;;;19.00;3.33;;;8.40;99.90;;;;;;2104963;28;20058;-73
2021/01/17 01:18:57;;;;;;;15.45;3.40;;;8.40;99.90;;;;;;2102254;28;20028;-73
2021/01/17 01:19:58;;;;;;;20.90;4.18;;;8.40;99.90;;;;;;2099523;28;20105;-73
2021/01/17 01:20:59;;;;;;;14.00;2.72;;;8.50;99.90;;;;;;2099424;28;20477;-73
2021/01/17 01:22:02;;;;;;;18.75;2.85;;;8.50;99.90;;;;;;2105331;28;20620;-73
2021/01/17 01:23:04;;;;;;;18.52;3.63;;;8.50;99.90;;;;;;2106019;28;20023;-74
2021/01/17 01:24:05;;;;;;;16.15;2.65;;;8.50;99.90;;;;;;2106405;28;20065;-73
2021/01/17 01:25:06;;;;;;;18.10;2.95;;;8.50;99.90;;;;;;2114010;28;20023;-73
2021/01/17 01:26:07;;;;;;;17.33;2.45;;;8.50;99.90;;;;;;2112914;28;20028;-72
2021/01/17 01:27:11;;;;;;;13.10;2.65;;;8.50;99.90;;;;;;2105938;28;20702;-73
2021/01/17 01:28:12;;;;;;;18.40;2.85;;;8.50;99.90;;;;;;2105353;28;20024;-73
2021/01/17 01:29:13;;;;;;;16.25;2.75;;;8.50;99.90;;;;;;2111390;28;20027;-73
2021/01/17 01:30:15;;;;;;;16.33;3.00;;;8.50;99.90;;;;;;2113956;28;20028;-73
2021/01/17 01:31:24;;;;;;;24.35;3.55;;;8.50;99.90;;;;;;2105782;28;20464;-72
2021/01/17 01:32:24;;;;;;;19.15;2.40;;;8.50;99.90;;;;;;2111994;28;20151;-73
2021/01/17 01:33:25;;;;;;;16.42;2.90;;;8.50;99.90;;;;;;2105854;28;20024;-72
2021/01/17 01:34:26;;;;;;;17.10;2.15;;;8.50;99.90;;;;;;2105909;28;20028;-73
2021/01/17 01:35:27;;;;;;;14.02;2.28;;;8.60;99.90;;;;;;2107340;28;20106;-73
2021/01/17 01:36:30;;;;;;;20.02;3.05;;;8.70;99.90;;;;;;2114669;28;20028;-73
2021/01/17 01:37:34;;;;;;;18.92;2.38;;;8.70;99.90;;;;;;2109391;28;20472;-72
2021/01/17 01:38:35;;;;;;;15.38;3.08;;;8.70;99.90;;;;;;2107945;28;20597;-74
2021/01/17 01:39:38;;;;;;;20.88;3.35;;;8.70;99.90;;;;;;2104701;28;20016;-73
2021/01/17 01:40:39;;;;;;;15.13;3.53;;;8.70;99.90;;;;;;2112997;28;20020;-73
2021/01/17 01:41:42;;;;;;;20.48;2.95;;;8.70;99.90;;;;;;2113863;28;20020;-73
2021/01/17 01:42:43;;;;;;;18.45;2.72;;;8.70;99.90;;;;;;2107775;28;20094;-72
2021/01/17 01:43:46;;;;;;;15.95;2.65;;;8.70;99.90;;;;;;2105707;28;20020;-71
2021/01/17 01:44:46;;;;;;;25.67;3.08;;;8.60;99.90;;;;;;2114388;28;20112;-73
2021/01/17 01:45:47;;;;;;;17.33;2.63;;;8.60;99.90;;;;;;2110352;28;20213;-73
2021/01/17 01:46:55;;;;;;;28.35;3.53;;;8.60;99.90;;;;;;2097059;28;20036;-73
2021/01/17 01:47:56;;;;;;;18.67;2.70;;;8.60;99.90;;;;;;2112223;28;20051;-73
2021/01/17 01:49:00;;;;;;;17.88;3.42;;;8.60;99.90;;;;;;2121109;27;20035;-73
2021/01/17 01:50:01;;;;;;;21.60;2.45;;;8.60;99.90;;;;;;2113091;28;20026;-72
2021/01/17 01:51:02;;;;;;;19.27;3.28;;;8.60;99.90;;;;;;2107494;28;20494;-72
2021/01/17 01:52:03;;;;;;;22.48;2.58;;;8.50;99.90;;;;;;2113141;28;20394;-73
2021/01/17 01:53:04;;;;;;;22.02;3.10;;;8.50;99.90;;;;;;2119913;27;20023;-73
2021/01/17 01:54:06;;;;;;;18.05;2.80;;;8.60;99.90;;;;;;2113277;27;20099;-73
2021/01/17 01:55:07;;;;;;;;;;;8.60;99.90;;;;;;2108841;28;20149;-71
2021/01/17 01:56:08;;;;;;;19.80;2.72;;;8.60;99.90;;;;;;2111311;28;19904;-73
2021/01/17 01:57:09;;;;;;;20.73;3.72;;;8.60;99.90;;;;;;2110244;28;20020;-73
2021/01/17 01:58:13;;;;;;;25.10;3.83;;;8.60;99.90;;;;;;2105260;28;20028;-73
2021/01/17 01:59:14;;;;;;;16.10;2.90;;;8.50;99.90;;;;;;2119115;27;20502;-72
2021/01/17 02:00:15;;;;;;;15.60;2.83;;;8.60;99.90;;;;;;2119066;27;20031;-72
2021/01/17 02:01:15;;;;;;;16.27;2.95;;;8.50;99.90;;;;;;2113539;28;20049;-73
2021/01/17 02:02:17;;;;;;;13.43;2.33;;;8.60;99.90;;;;;;2110361;28;20075;-73
2021/01/17 02:03:17;;;;;;;17.63;2.80;;;8.50;99.90;;;;;;2113733;28;20023;-72
2021/01/17 02:04:18;;;;;;;21.00;3.30;;;8.50;99.90;;;;;;2114157;28;20490;-73
2021/01/17 02:05:19;;;;;;;20.33;3.40;;;8.50;99.90;;;;;;2113164;28;20047;-73
2021/01/17 02:06:22;;;;;;;24.20;3.30;;;8.50;99.90;;;;;;2113866;28;20109;-73
2021/01/17 02:07:56;;;;;;;18.70;3.20;;;8.50;99.90;;;;;;2113100;28;20021;-73
2021/01/17 02:09:24;;;;;;;12.43;2.22;;;8.50;99.90;;;;;;2112037;28;20614;-72
2021/01/17 02:10:25;;;;;;;13.35;2.10;;;8.40;99.90;;;;;;2105399;28;20028;-73
2021/01/17 02:11:59;;;;;;;16.27;2.90;;;8.40;99.90;;;;;;2105964;28;20517;-73
2021/01/17 02:13:28;;;;;;;11.05;2.30;;;8.40;99.90;;;;;;2105180;28;20539;-72
2021/01/17 02:14:38;;;;;;;11.82;2.10;;;8.50;99.90;;;;;;2111188;28;20463;-72
2021/01/17 02:15:41;;;;;;;15.18;2.80;;;8.50;99.90;;;;;;2113984;28;20402;-73
2021/01/17 02:16:43;;;;;;;20.95;2.83;;;8.50;99.90;;;;;;2114411;28;20061;-73
2021/01/17 02:17:46;;;;;;;15.02;3.08;;;8.50;99.90;;;;;;2110741;28;20039;-73
2021/01/17 02:18:49;;;;;;;16.15;2.45;;;8.50;99.90;;;;;;2105832;28;20039;-72
2021/01/17 02:20:07;;;;;;;26.67;3.97;;;8.50;99.90;;;;;;2105718;28;20020;-72
2021/01/17 02:21:09;;;;;;;22.05;2.97;;;8.50;99.90;;;;;;2104975;28;20024;-72
2021/01/17 02:22:11;;;;;;;20.85;3.20;;;8.50;99.90;;;;;;2112593;28;20016;-73
2021/01/17 02:23:27;;;;;;;;;;;8.50;99.90;;;;;;2114503;27;20059;-73
2021/01/17 02:24:56;;;;;;;18.83;3.22;;;8.50;99.90;;;;;;2114926;27;19993;-72
2021/01/17 02:25:57;;;;;;;17.13;2.58;;;8.50;99.90;;;;;;2113415;28;20031;-73
2021/01/17 02:26:59;;;;;;;22.15;2.55;;;8.50;99.90;;;;;;2112726;28;20024;-73
2021/01/17 02:28:03;;;;;;;19.83;2.95;;;8.50;99.90;;;;;;2113456;28;20024;-73
2021/01/17 02:29:05;;;;;;;14.95;2.83;;;8.50;99.90;;;;;;2121139;27;20437;-73
2021/01/17 02:30:08;;;;;;;;;;;8.50;99.90;;;;;;2105757;28;20035;-74
2021/01/17 02:31:09;;;;;;;17.77;2.33;;;8.50;99.90;;;;;;2113565;28;19911;-73
2021/01/17 02:32:13;;;;;;;17.02;3.17;;;8.50;99.90;;;;;;2113762;28;20040;-73
2021/01/17 02:33:36;;;;;;;13.73;3.00;;;8.50;99.90;;;;;;2114289;28;20116;-73
2021/01/17 02:34:37;;;;;;;15.75;2.80;;;8.50;99.90;;;;;;2113665;28;20571;-73
2021/01/17 02:35:40;;;;;;;19.45;3.38;;;8.50;99.90;;;;;;2111423;28;20020;-72
2021/01/17 02:36:41;;;;;;;20.30;3.90;;;8.50;99.90;;;;;;2114153;28;20032;-73
2021/01/17 02:38:00;;;;;;;21.92;2.95;;;8.50;99.90;;;;;;2113796;28;20099;-73
2021/01/17 02:39:17;;;;;;;20.20;2.88;;;8.40;99.90;;;;;;2112052;28;20551;-73
2021/01/17 02:40:29;;;;;;;20.98;2.35;;;8.40;99.90;;;;;;2105806;28;20027;-72
2021/01/17 02:41:38;;;;;;;20.42;3.08;;;8.40;99.90;;;;;;2113849;28;20030;-73
2021/01/17 02:42:41;;;;;;;14.15;2.33;;;8.40;99.90;;;;;;2110698;28;20012;-73
2021/01/17 02:43:43;;;;;;;19.70;3.20;;;8.40;99.90;;;;;;2105953;28;20036;-73
2021/01/17 02:44:43;;;;;;;17.20;3.15;;;8.40;99.90;;;;;;2108255;28;20551;-73
2021/01/17 02:45:44;;;;;;;23.67;3.42;;;8.40;99.90;;;;;;2112740;28;20107;-73
2021/01/17 02:46:45;;;;;;;21.42;3.03;;;8.30;99.90;;;;;;2105071;28;20020;-73
2021/01/17 02:47:46;;;;;;;11.77;2.30;;;8.40;99.90;;;;;;2110146;28;20499;-72
2021/01/17 02:48:47;;;;;;;23.27;3.08;;;8.40;99.90;;;;;;2113621;28;20020;-72
2021/01/17 02:49:48;;;;;;;22.40;3.58;;;8.30;99.90;;;;;;2113272;28;20051;-72
2021/01/17 02:50:48;;;;;;;19.55;2.70;;;8.30;99.90;;;;;;2113442;28;20020;-73
2021/01/17 02:51:50;;;;;;;21.65;3.05;;;8.40;99.90;;;;;;2113783;28;20026;-73
2021/01/17 02:53:18;;;;;;;22.23;3.35;;;8.30;99.90;;;;;;2115213;28;20068;-73
2021/01/17 02:54:29;;;;;;;15.43;3.05;;;8.30;99.90;;;;;;2112837;28;20038;-73
2021/01/17 02:55:35;;;;;;;25.60;3.17;;;8.40;99.90;;;;;;2115590;28;20057;-73
2021/01/17 02:56:41;;;;;;;30.27;3.70;;;8.30;99.90;;;;;;2116133;28;20725;-73
2021/01/17 02:57:44;;;;;;;27.77;3.50;;;8.40;99.90;;;;;;2123346;27;20026;-72
2021/01/17 02:58:51;;;;;;;24.23;4.15;;;8.40;99.90;;;;;;2114882;28;20106;-73
2021/01/17 03:00:21;;;;;;;23.67;3.50;;;8.40;99.90;;;;;;2115384;28;20023;-73
2021/01/17 03:01:31;;;;;;;22.67;2.88;;;8.40;99.90;;;;;;2107101;28;20542;-73
2021/01/17 03:02:35;;;;;;;25.08;3.42;;;8.40;99.90;;;;;;2107489;28;20039;-73
2021/01/17 03:03:39;;;;;;;24.83;3.83;;;8.40;99.90;;;;;;2115171;28;20522;-73
2021/01/17 03:04:44;;;;;;;25.25;3.88;;;8.40;99.90;;;;;;2106393;28;20458;-72
2021/01/17 03:05:46;;;;;;;22.17;3.30;;;8.40;99.90;;;;;;2109405;28;20020;-73
2021/01/17 03:06:48;;;;;;;;;;;8.40;99.90;;;;;;2107846;28;20081;-73
2021/01/17 03:07:50;;;;;;;22.75;2.78;;;8.40;99.90;;;;;;2112456;28;19911;-74
2021/01/17 03:08:53;;;;;;;22.33;3.85;;;8.40;99.90;;;;;;2115243;28;20392;-72
2021/01/17 03:09:54;;;;;;;28.00;4.07;;;8.40;99.90;;;;;;2114784;28;20594;-73
2021/01/17 03:10:54;;;;;;;21.30;3.83;;;8.40;99.90;;;;;;2114847;28;20065;-72
2021/01/17 03:11:59;;;;;;;19.25;2.90;;;8.30;99.90;;;;;;2115691;28;20019;-73
2021/01/17 03:13:01;;;;;;;24.25;3.80;;;8.40;99.90;;;;;;2107700;28;20025;-73
2021/01/17 03:14:05;;;;;;;20.67;3.45;;;8.40;99.90;;;;;;2108404;28;20401;-72
2021/01/17 03:15:07;;;;;;;21.95;4.15;;;8.40;99.90;;;;;;2123758;27;20015;-74
2021/01/17 03:16:08;;;;;;;24.40;3.72;;;8.40;99.90;;;;;;2123655;27;20012;-72
2021/01/17 03:17:09;;;;;;;25.20;3.97;;;8.40;99.90;;;;;;2115221;28;20032;-73
2021/01/17 03:18:10;;;;;;;22.08;4.30;;;8.30;99.90;;;;;;2113951;28;20032;-72
2021/01/17 03:19:10;;;;;;;24.65;4.28;;;8.40;99.90;;;;;;2122754;27;20038;-73
2021/01/17 03:20:11;;;;;;;20.15;3.40;;;8.40;99.90;;;;;;2115211;28;20026;-72
2021/01/17 03:21:12;;;;;;;23.77;3.70;;;8.40;99.90;;;;;;2114595;28;20027;-73
2021/01/17 03:22:13;;;;;;;24.15;4.10;;;8.40;99.90;;;;;;2115305;28;20164;-72
2021/01/17 03:23:13;;;;;;;26.75;3.85;;;8.40;99.90;;;;;;2112567;28;20028;-73
2021/01/17 03:24:14;;;;;;;26.42;4.10;;;8.50;99.90;;;;;;2115152;28;20016;-73
2021/01/17 03:25:15;;;;;;;30.73;4.18;;;8.50;99.90;;;;;;2116014;28;20024;-73
2021/01/17 03:26:16;;;;;;;22.98;3.90;;;8.40;99.90;;;;;;2111070;28;20107;-73
2021/01/17 03:27:17;;;;;;;30.40;3.88;;;8.40;99.90;;;;;;2115073;28;20114;-74
2021/01/17 03:28:18;;;;;;;29.80;4.07;;;8.40;99.90;;;;;;2115421;27;20016;-73
2021/01/17 03:29:19;;;;;;;29.55;4.32;;;8.40;99.90;;;;;;2113713;28;20031;-72
2021/01/17 03:30:20;;;;;;;33.97;4.03;;;8.40;99.90;;;;;;2116560;27;20073;-73
2021/01/17 03:31:21;;;;;;;22.10;3.67;;;8.40;99.90;;;;;;2123588;27;20030;-73
2021/01/17 03:32:22;;;;;;;24.10;4.15;;;8.40;99.90;;;;;;2115014;28;20051;-73
2021/01/17 03:33:22;;;;;;;29.05;4.20;;;8.40;99.90;;;;;;2114837;28;20028;-73
2021/01/17 03:34:23;;;;;;;27.42;4.65;;;8.40;99.90;;;;;;2107709;28;20035;-72
2021/01/17 03:35:24;;;;;;;27.02;3.95;;;8.40;99.90;;;;;;2115131;28;20066;-73
2021/01/17 03:36:24;;;;;;;24.90;4.82;;;8.50;99.90;;;;;;2111389;28;20544;-73
2021/01/17 03:37:25;;;;;;;22.35;4.28;;;8.50;99.90;;;;;;2106667;28;20027;-73
2021/01/17 03:38:26;;;;;;;28.20;3.85;;;8.50;99.90;;;;;;2113238;28;20035;-73
2021/01/17 03:39:26;;;;;;;33.65;4.97;;;8.50;99.90;;;;;;2114015;28;20407;-73
2021/01/17 03:40:27;;;;;;;36.85;5.40;;;8.40;99.90;;;;;;2113075;28;20030;-73
2021/01/17 03:41:28;;;;;;;27.70;4.18;;;8.40;99.90;;;;;;2106744;28;20024;-73
2021/01/17 03:42:28;;;;;;;35.22;4.13;;;8.40;99.90;;;;;;2110481;28;20027;-74
2021/01/17 03:43:29;;;;;;;26.33;4.10;;;8.40;99.90;;;;;;2114377;28;20031;-73
2021/01/17 03:44:29;;;;;;;25.05;4.95;;;8.40;99.90;;;;;;2114281;28;20090;-74
2021/01/17 03:45:30;;;;;;;28.55;4.82;;;8.30;99.90;;;;;;2106725;28;20028;-73
2021/01/17 03:46:31;;;;;;;32.22;4.90;;;8.30;99.90;;;;;;2106253;28;20020;-73
2021/01/17 03:47:32;;;;;;;34.72;5.45;;;8.30;99.90;;;;;;2109408;28;20020;-73
2021/01/17 03:48:32;;;;;;;32.78;4.45;;;8.30;99.90;;;;;;2115631;28;20362;-73
2021/01/17 03:49:33;;;;;;;26.00;4.03;;;8.30;99.90;;;;;;2113486;28;20030;-73
2021/01/17 03:50:34;;;;;;;17.92;3.20;;;8.30;99.90;;;;;;2114699;28;20101;-74
2021/01/17 03:51:35;;;;;;;26.55;4.68;;;8.40;99.90;;;;;;2106329;28;20032;-72
2021/01/17 03:52:35;;;;;;;37.63;4.53;;;8.40;99.90;;;;;;2106846;28;20583;-73
2021/01/17 03:53:36;;;;;;;30.08;4.22;;;8.40;99.90;;;;;;2118702;27;20168;-72
2021/01/17 03:54:37;;;;;;;30.63;4.00;;;8.40;99.90;;;;;;2115149;28;20034;-73
2021/01/17 03:55:37;;;;;;;30.58;4.65;;;8.40;99.90;;;;;;2114718;28;20153;-74
2021/01/17 03:56:38;;;;;;;32.03;4.13;;;8.40;99.90;;;;;;2115088;28;20554;-73
2021/01/17 03:57:39;;;;;;;32.78;4.60;;;8.40;99.90;;;;;;2106847;28;20506;-73
2021/01/17 03:58:39;;;;;;;32.70;4.60;;;8.40;99.90;;;;;;2109739;28;20102;-73
2021/01/17 03:59:40;;;;;;;26.13;4.05;;;8.40;99.90;;;;;;2106857;28;20024;-73
2021/01/17 04:00:40;;;;;;;30.05;4.75;;;8.40;99.90;;;;;;2106078;28;20161;-72
2021/01/17 04:01:42;;;;;;;32.38;5.07;;;8.40;99.90;;;;;;2106305;28;20028;-72
2021/01/17 04:02:42;;;;;;;40.10;5.37;;;8.40;99.90;;;;;;2106908;28;20023;-73
2021/01/17 04:03:44;;;;;;;29.20;4.38;;;8.30;99.90;;;;;;2097552;28;20304;-73
2021/01/17 04:04:44;;;;;;;32.42;5.28;;;8.30;99.90;;;;;;2114002;28;20026;-73
2021/01/17 04:05:45;;;;;;;29.10;4.15;;;8.30;99.90;;;;;;2112714;28;20498;-73
2021/01/17 04:06:46;;;;;;;30.17;5.22;;;8.40;99.90;;;;;;2111871;28;20016;-73
2021/01/17 04:07:46;;;;;;;23.88;4.28;;;8.40;99.90;;;;;;2114750;28;20018;-73
2021/01/17 04:08:47;;;;;;;39.92;4.60;;;8.30;99.90;;;;;;2118094;27;20537;-73
2021/01/17 04:09:47;;;;;;;32.70;4.80;;;8.30;99.90;;;;;;2114336;28;20705;-73
2021/01/17 04:10:48;;;;;;;30.60;4.25;;;8.30;99.90;;;;;;2106153;28;20031;-73
2021/01/17 04:11:49;;;;;;;31.25;4.45;;;8.30;99.90;;;;;;2111242;28;20040;-73
2021/01/17 04:12:50;;;;;;;35.45;5.38;;;8.30;99.90;;;;;;2107586;27;20023;-73
2021/01/17 04:13:50;;;;;;;23.80;3.72;;;8.40;99.90;;;;;;2114265;28;20506;-73
2021/01/17 04:14:51;;;;;;;29.90;4.80;;;8.30;99.90;;;;;;2121278;27;20474;-73
2021/01/17 04:15:52;;;;;;;23.08;4.13;;;8.40;99.90;;;;;;2113445;28;20020;-74
2021/01/17 04:16:53;;;;;;;32.92;4.60;;;8.40;99.90;;;;;;2106226;28;20369;-73
2021/01/17 04:17:54;;;;;;;29.45;4.72;;;8.40;99.90;;;;;;2108197;28;20043;-73
2021/01/17 04:18:54;;;;;;;27.65;4.53;;;8.40;99.90;;;;;;2113176;28;20024;-73
2021/01/17 04:19:55;;;;;;;23.60;3.95;;;8.50;99.90;;;;;;2112735;28;20019;-72
2021/01/17 04:20:56;;;;;;;31.77;5.10;;;8.50;99.90;;;;;;2113327;28;20128;-73
2021/01/17 04:21:56;;;;;;;29.73;5.13;;;8.50;99.90;;;;;;2106110;28;20028;-73
2021/01/17 04:23:01;;;;;;;32.80;4.57;;;8.50;99.90;;;;;;2106319;28;20020;-73
2021/01/17 04:24:02;;;;;;;35.45;4.40;;;8.50;99.90;;;;;;2106947;28;20020;-73
2021/01/17 04:25:04;;;;;;;38.83;4.45;;;8.50;99.90;;;;;;2111818;28;20012;-72
2021/01/17 04:26:05;;;;;;;27.35;4.32;;;8.50;99.90;;;;;;2113671;28;20028;-74
2021/01/17 04:27:06;;;;;;;37.30;6.05;;;8.40;99.90;;;;;;2109879;28;20077;-72
2021/01/17 04:28:11;;;;;;;34.25;4.93;;;8.40;99.90;;;;;;2110011;28;20016;-73
2021/01/17 04:29:11;;;;;;;27.60;4.85;;;8.40;99.90;;;;;;2106065;28;20099;-73
2021/01/17 04:30:12;;;;;;;35.65;4.50;;;8.40;99.90;;;;;;2113901;27;20030;-72
2021/01/17 04:31:13;;;;;;;36.28;5.65;;;8.40;99.90;;;;;;2107333;28;20089;-72
2021/01/17 04:32:14;;;;;;;34.42;5.38;;;8.40;99.90;;;;;;2106066;28;20032;-72
2021/01/17 04:33:18;;;;;;;34.25;5.10;;;8.40;99.90;;;;;;2114238;28;20069;-72
2021/01/17 04:34:22;;;;;;;31.55;5.70;;;8.40;99.90;;;;;;2113651;28;20031;-73
2021/01/17 04:35:22;;;;;;;35.25;5.22;;;8.30;99.90;;;;;;2105720;28;20050;-73
2021/01/17 04:36:23;;;;;;;27.50;4.45;;;8.30;99.90;;;;;;2110637;28;20120;-73
2021/01/17 04:37:25;;;;;;;38.33;5.63;;;8.30;99.90;;;;;;2115381;28;20027;-72
2021/01/17 04:38:25;;;;;;;29.77;5.70;;;8.30;99.90;;;;;;2113955;28;20032;-73
2021/01/17 04:39:26;;;;;;;31.70;6.18;;;8.30;99.90;;;;;;2105863;28;20495;-73
2021/01/17 04:40:30;;;;;;;34.05;6.28;;;8.30;99.90;;;;;;2112723;28;20392;-72
2021/01/17 04:41:32;;;;;;;33.15;4.97;;;8.30;99.90;;;;;;2109791;28;20514;-73
2021/01/17 04:42:36;;;;;;;31.08;5.28;;;8.30;99.90;;;;;;2115003;28;20413;-73
2021/01/17 04:43:45;;;;;;;35.42;5.32;;;8.30;99.90;;;;;;2114615;28;20090;-72
2021/01/17 04:44:58;;;;;;;32.13;5.53;;;8.40;99.90;;;;;;2113725;28;20028;-72
2021/01/17 04:46:00;;;;;;;39.70;4.80;;;8.40;99.90;;;;;;2115821;27;20594;-74
2021/01/17 04:47:04;;;;;;;37.80;5.32;;;8.30;99.90;;;;;;2122355;27;20019;-73
2021/01/17 04:48:05;;;;;;;33.60;4.45;;;8.30;99.90;;;;;;2115847;27;20111;-73
2021/01/17 04:49:08;;;;;;;37.97;6.00;;;8.40;99.90;;;;;;2114307;28;20027;-72
2021/01/17 04:50:09;;;;;;;31.38;4.45;;;8.40;99.90;;;;;;2107801;28;20019;-73
2021/01/17 04:51:10;;;;;;;34.33;5.60;;;8.40;99.90;;;;;;2113100;28;20095;-73
2021/01/17 04:52:13;;;;;;;28.40;4.82;;;8.40;99.90;;;;;;2117494;27;20402;-73
2021/01/17 04:53:15;;;;;;;38.75;5.32;;;8.40;99.90;;;;;;2114197;28;20409;-73
2021/01/17 04:54:16;;;;;;;32.35;5.20;;;8.40;99.90;;;;;;2113274;28;20466;-73
2021/01/17 04:55:23;;;;;;;36.45;4.82;;;8.40;99.90;;;;;;2113371;28;20023;-73
2021/01/17 04:56:27;;;;;;;37.45;5.40;;;8.40;99.90;;;;;;2106561;28;20023;-73
2021/01/17 04:57:53;;;;;;;31.50;4.07;;;8.40;99.90;;;;;;2111589;28;20032;-73
2021/01/17 04:59:10;;;;;;;40.38;5.00;;;8.40;99.90;;;;;;2121293;27;20019;-73
2021/01/17 05:00:12;;;;;;;37.15;5.53;;;8.40;99.90;;;;;;2112061;28;20035;-74
2021/01/17 05:01:28;;;;;;;37.95;6.43;;;8.40;99.90;;;;;;2106348;28;20038;-72
2021/01/17 05:02:33;;;;;;;44.50;5.55;;;8.40;99.90;;;;;;2110315;28;20469;-73
2021/01/17 05:04:05;;;;;;;43.88;6.57;;;8.30;99.90;;;;;;2106402;28;20024;-73
2021/01/17 05:05:14;;;;;;;40.33;5.60;;;8.30;99.90;;;;;;2096156;28;20021;-73
2021/01/17 05:06:29;;;;;;;46.17;6.10;;;8.30;99.90;;;;;;2094866;28;20020;-73
2021/01/17 05:07:37;;;;;;;49.17;6.25;;;8.30;99.90;;;;;;2112275;28;20020;-73
2021/01/17 05:08:43;;;;;;;37.03;5.50;;;8.30;99.90;;;;;;2114483;28;20069;-73
2021/01/17 05:09:50;;;;;;;37.20;5.90;;;8.30;99.90;;;;;;2114312;28;20058;-73
2021/01/17 05:11:04;;;;;;;30.45;5.55;;;8.30;99.90;;;;;;2110932;28;20380;-73
2021/01/17 05:12:15;;;;;;;38.58;5.13;;;8.30;99.90;;;;;;2106159;28;20499;-73
2021/01/17 05:13:19;;;;;;;38.40;5.57;;;8.30;99.90;;;;;;2106434;28;20035;-72
2021/01/17 05:14:38;;;;;;;40.10;6.97;;;8.30;99.90;;;;;;2109918;28;20076;-73
2021/01/17 05:15:41;;;;;;;38.95;5.47;;;8.20;99.90;;;;;;2114391;28;20546;-72
2021/01/17 05:16:44;;;;;;;38.80;6.43;;;8.10;99.90;;;;;;2114786;28;20019;-73
2021/01/17 05:17:45;;;;;;;34.60;5.07;;;8.10;99.90;;;;;;2114010;28;20039;-72
2021/01/17 05:18:47;;;;;;;38.75;4.85;;;8.10;99.90;;;;;;2109291;28;20023;-72
2021/01/17 05:19:48;;;;;;;41.40;5.57;;;8.10;99.90;;;;;;2106764;28;20020;-72
2021/01/17 05:20:56;;;;;;;38.40;5.75;;;8.10;99.90;;;;;;2107144;28;20558;-73
2021/01/17 05:22:02;;;;;;;49.05;5.88;;;8.00;99.90;;;;;;2114861;28;20022;-73
2021/01/17 05:23:09;;;;;;;41.28;5.80;;;8.00;99.90;;;;;;2114379;28;20019;-73
2021/01/17 05:24:12;;;;;;;34.95;5.35;;;8.00;99.90;;;;;;2114349;28;20027;-73
2021/01/17 05:25:13;;;;;;;41.30;5.57;;;8.00;99.90;;;;;;2113938;28;20107;-73
2021/01/17 05:26:14;;;;;;;38.85;6.53;;;8.00;99.90;;;;;;2112273;27;20059;-73
2021/01/17 05:27:15;;;;;;;54.60;6.05;;;8.00;99.90;;;;;;2109789;28;20020;-73
2021/01/17 05:28:15;;;;;;;50.53;5.72;;;8.00;99.90;;;;;;2110129;28;20031;-73
2021/01/17 05:29:21;;;;;;;33.45;6.07;;;8.00;99.90;;;;;;2113997;28;20497;-73
2021/01/17 05:30:22;;;;;;;42.28;5.70;;;7.90;99.90;;;;;;2121786;27;20053;-73